sensor_id;sensor_type;location;lat;lon;timestamp;P1;durP1;ratioP1;P2;durP2;ratioP2
43994;SDS011;51687;52.160;5.298;2023-08-24T00:01:48;2.55;;;2.30;;
43994;SDS011;51687;52.160;5.298;2023-08-24T00:04:15;3.53;;;2.55;;
43994;SDS011;51687;52.160;5.298;2023-08-24T00:06:42;4.65;;;2.70;;
43994;SDS011;51687;52.160;5.298;2023-08-24T00:09:08;5.70;;;2.75;;
43994;SDS011;51687;52.160;5.298;2023-08-24T00:11:35;3.80;;;3.50;;
43994;SDS011;51687;52.160;5.298;2023-08-24T00:14:02;5.28;;;3.30;;
43994;SDS011;51687;52.160;5.298;2023-08-24T00:16:29;6.60;;;3.75;;
43994;SDS011;51687;52.160;5.298;2023-08-24T00:18:55;4.93;;;3.30;;
43994;SDS011;51687;52.160;5.298;2023-08-24T00:21:22;5.38;;;2.90;;
43994;SDS011;51687;52.160;5.298;2023-08-24T00:23:50;3.83;;;3.45;;
43994;SDS011;51687;52.160;5.298;2023-08-24T00:26:17;6.25;;;3.90;;
43994;SDS011;51687;52.160;5.298;2023-08-24T00:28:44;6.40;;;3.33;;
43994;SDS011;51687;52.160;5.298;2023-08-24T00:31:12;3.65;;;2.63;;
43994;SDS011;51687;52.160;5.298;2023-08-24T00:33:39;4.93;;;3.00;;
43994;SDS011;51687;52.160;5.298;2023-08-24T00:36:06;6.28;;;3.25;;
43994;SDS011;51687;52.160;5.298;2023-08-24T00:38:33;4.88;;;3.15;;
43994;SDS011;51687;52.160;5.298;2023-08-24T00:41:00;4.68;;;3.33;;
43994;SDS011;51687;52.160;5.298;2023-08-24T00:43:27;4.10;;;2.90;;
43994;SDS011;51687;52.160;5.298;2023-08-24T00:45:56;4.00;;;2.67;;
43994;SDS011;51687;52.160;5.298;2023-08-24T00:48:25;7.60;;;3.40;;
43994;SDS011;51687;52.160;5.298;2023-08-24T00:50:59;3.78;;;2.97;;
43994;SDS011;51687;52.160;5.298;2023-08-24T00:53:28;4.95;;;3.08;;
43994;SDS011;51687;52.160;5.298;2023-08-24T00:55:56;3.75;;;2.78;;
43994;SDS011;51687;52.160;5.298;2023-08-24T00:58:23;3.33;;;2.70;;
43994;SDS011;51687;52.160;5.298;2023-08-24T01:00:53;3.72;;;3.30;;
43994;SDS011;51687;52.160;5.298;2023-08-24T01:03:22;4.10;;;3.15;;
43994;SDS011;51687;52.160;5.298;2023-08-24T01:05:50;4.15;;;3.20;;
43994;SDS011;51687;52.160;5.298;2023-08-24T01:08:17;5.32;;;3.35;;
43994;SDS011;51687;52.160;5.298;2023-08-24T01:13:31;5.45;;;3.03;;
43994;SDS011;51687;52.160;5.298;2023-08-24T01:16:18;5.10;;;2.85;;
43994;SDS011;51687;52.160;5.298;2023-08-24T01:18:48;5.47;;;3.22;;
43994;SDS011;51687;52.160;5.298;2023-08-24T01:21:16;7.50;;;3.47;;
43994;SDS011;51687;52.160;5.298;2023-08-24T01:26:14;5.18;;;3.40;;
43994;SDS011;51687;52.160;5.298;2023-08-24T01:28:44;3.50;;;3.10;;
43994;SDS011;51687;52.160;5.298;2023-08-24T01:33:39;4.25;;;2.05;;
43994;SDS011;51687;52.160;5.298;2023-08-24T01:36:07;4.22;;;2.25;;
43994;SDS011;51687;52.160;5.298;2023-08-24T01:38:35;5.03;;;2.20;;
43994;SDS011;51687;52.160;5.298;2023-08-24T01:43:40;3.42;;;2.08;;
43994;SDS011;51687;52.160;5.298;2023-08-24T01:46:10;3.05;;;2.03;;
43994;SDS011;51687;52.160;5.298;2023-08-24T01:48:38;2.95;;;1.75;;
43994;SDS011;51687;52.160;5.298;2023-08-24T01:51:05;3.00;;;2.20;;
43994;SDS011;51687;52.160;5.298;2023-08-24T01:53:33;2.00;;;1.60;;
43994;SDS011;51687;52.160;5.298;2023-08-24T01:56:00;2.88;;;2.03;;
43994;SDS011;51687;52.160;5.298;2023-08-24T01:58:27;3.80;;;2.05;;
43994;SDS011;51687;52.160;5.298;2023-08-24T02:00:54;3.10;;;2.20;;
43994;SDS011;51687;52.160;5.298;2023-08-24T02:03:21;5.05;;;2.45;;
43994;SDS011;51687;52.160;5.298;2023-08-24T02:05:47;4.07;;;2.55;;
43994;SDS011;51687;52.160;5.298;2023-08-24T02:08:14;4.95;;;2.80;;
43994;SDS011;51687;52.160;5.298;2023-08-24T02:10:41;4.38;;;3.08;;
43994;SDS011;51687;52.160;5.298;2023-08-24T02:13:08;4.15;;;2.67;;
43994;SDS011;51687;52.160;5.298;2023-08-24T02:15:37;3.85;;;2.97;;
43994;SDS011;51687;52.160;5.298;2023-08-24T02:18:08;5.07;;;3.20;;
43994;SDS011;51687;52.160;5.298;2023-08-24T02:20:35;5.15;;;3.67;;
43994;SDS011;51687;52.160;5.298;2023-08-24T02:23:03;4.15;;;3.28;;
43994;SDS011;51687;52.160;5.298;2023-08-24T02:25:30;4.38;;;3.35;;
43994;SDS011;51687;52.160;5.298;2023-08-24T02:27:57;5.53;;;3.28;;
43994;SDS011;51687;52.160;5.298;2023-08-24T02:30:25;2.45;;;2.25;;
43994;SDS011;51687;52.160;5.298;2023-08-24T02:32:52;4.30;;;3.60;;
43994;SDS011;51687;52.160;5.298;2023-08-24T02:35:19;4.90;;;3.88;;
43994;SDS011;51687;52.160;5.298;2023-08-24T02:37:45;3.85;;;3.35;;
43994;SDS011;51687;52.160;5.298;2023-08-24T02:40:12;4.70;;;3.88;;
43994;SDS011;51687;52.160;5.298;2023-08-24T02:42:39;8.88;;;4.07;;
43994;SDS011;51687;52.160;5.298;2023-08-24T02:45:06;4.70;;;3.95;;
43994;SDS011;51687;52.160;5.298;2023-08-24T02:47:33;5.95;;;3.58;;
43994;SDS011;51687;52.160;5.298;2023-08-24T02:50:00;4.90;;;4.50;;
43994;SDS011;51687;52.160;5.298;2023-08-24T02:52:26;6.18;;;4.47;;
43994;SDS011;51687;52.160;5.298;2023-08-24T02:54:53;4.63;;;4.13;;
43994;SDS011;51687;52.160;5.298;2023-08-24T02:57:20;6.40;;;5.05;;
43994;SDS011;51687;52.160;5.298;2023-08-24T02:59:46;6.43;;;5.57;;
43994;SDS011;51687;52.160;5.298;2023-08-24T03:02:13;4.93;;;4.53;;
43994;SDS011;51687;52.160;5.298;2023-08-24T03:04:40;4.68;;;4.30;;
43994;SDS011;51687;52.160;5.298;2023-08-24T03:07:07;5.35;;;4.78;;
43994;SDS011;51687;52.160;5.298;2023-08-24T03:09:34;5.57;;;5.07;;
43994;SDS011;51687;52.160;5.298;2023-08-24T03:12:01;5.43;;;4.90;;
43994;SDS011;51687;52.160;5.298;2023-08-24T03:14:29;6.07;;;5.35;;
43994;SDS011;51687;52.160;5.298;2023-08-24T03:16:56;8.77;;;4.97;;
43994;SDS011;51687;52.160;5.298;2023-08-24T03:19:23;6.95;;;5.88;;
43994;SDS011;51687;52.160;5.298;2023-08-24T03:21:50;6.20;;;5.15;;
43994;SDS011;51687;52.160;5.298;2023-08-24T03:24:16;5.45;;;4.97;;
43994;SDS011;51687;52.160;5.298;2023-08-24T03:26:44;5.45;;;4.95;;
43994;SDS011;51687;52.160;5.298;2023-08-24T03:29:11;8.27;;;5.68;;
43994;SDS011;51687;52.160;5.298;2023-08-24T03:31:38;6.38;;;5.88;;
43994;SDS011;51687;52.160;5.298;2023-08-24T03:34:05;7.63;;;5.97;;
43994;SDS011;51687;52.160;5.298;2023-08-24T03:36:32;6.95;;;6.25;;
43994;SDS011;51687;52.160;5.298;2023-08-24T03:38:58;6.25;;;5.53;;
43994;SDS011;51687;52.160;5.298;2023-08-24T03:41:25;5.68;;;5.13;;
43994;SDS011;51687;52.160;5.298;2023-08-24T03:43:52;11.43;;;5.65;;
43994;SDS011;51687;52.160;5.298;2023-08-24T03:46:19;6.05;;;5.50;;
43994;SDS011;51687;52.160;5.298;2023-08-24T03:48:46;6.50;;;5.90;;
43994;SDS011;51687;52.160;5.298;2023-08-24T03:51:12;6.88;;;6.18;;
43994;SDS011;51687;52.160;5.298;2023-08-24T03:53:39;5.97;;;5.45;;
43994;SDS011;51687;52.160;5.298;2023-08-24T03:56:06;6.20;;;5.70;;
43994;SDS011;51687;52.160;5.298;2023-08-24T03:58:33;7.05;;;6.40;;
43994;SDS011;51687;52.160;5.298;2023-08-24T04:01:03;7.70;;;6.15;;
43994;SDS011;51687;52.160;5.298;2023-08-24T04:03:29;6.70;;;6.07;;
43994;SDS011;51687;52.160;5.298;2023-08-24T04:05:56;5.97;;;5.40;;
43994;SDS011;51687;52.160;5.298;2023-08-24T04:08:23;6.75;;;6.15;;
43994;SDS011;51687;52.160;5.298;2023-08-24T04:10:50;6.95;;;6.35;;
43994;SDS011;51687;52.160;5.298;2023-08-24T04:13:17;6.70;;;6.10;;
43994;SDS011;51687;52.160;5.298;2023-08-24T04:15:43;6.22;;;5.72;;
43994;SDS011;51687;52.160;5.298;2023-08-24T04:18:10;6.65;;;6.10;;
43994;SDS011;51687;52.160;5.298;2023-08-24T04:20:37;6.65;;;6.00;;
43994;SDS011;51687;52.160;5.298;2023-08-24T04:23:04;7.18;;;6.57;;
43994;SDS011;51687;52.160;5.298;2023-08-24T04:25:33;10.50;;;6.25;;
43994;SDS011;51687;52.160;5.298;2023-08-24T04:27:59;7.13;;;6.43;;
43994;SDS011;51687;52.160;5.298;2023-08-24T04:30:26;7.25;;;6.55;;
43994;SDS011;51687;52.160;5.298;2023-08-24T04:32:53;7.13;;;6.53;;
43994;SDS011;51687;52.160;5.298;2023-08-24T04:35:20;8.98;;;7.70;;
43994;SDS011;51687;52.160;5.298;2023-08-24T04:37:46;8.52;;;7.10;;
43994;SDS011;51687;52.160;5.298;2023-08-24T04:40:14;8.13;;;7.33;;
43994;SDS011;51687;52.160;5.298;2023-08-24T04:42:41;8.82;;;7.05;;
43994;SDS011;51687;52.160;5.298;2023-08-24T04:45:07;9.98;;;7.18;;
43994;SDS011;51687;52.160;5.298;2023-08-24T04:47:35;9.80;;;7.28;;
43994;SDS011;51687;52.160;5.298;2023-08-24T04:50:01;8.10;;;7.30;;
43994;SDS011;51687;52.160;5.298;2023-08-24T04:52:28;7.35;;;6.85;;
43994;SDS011;51687;52.160;5.298;2023-08-24T04:54:57;8.02;;;7.22;;
43994;SDS011;51687;52.160;5.298;2023-08-24T04:57:24;10.40;;;7.45;;
43994;SDS011;51687;52.160;5.298;2023-08-24T04:59:51;9.50;;;7.25;;
43994;SDS011;51687;52.160;5.298;2023-08-24T05:02:18;8.02;;;7.32;;
43994;SDS011;51687;52.160;5.298;2023-08-24T05:04:44;8.32;;;7.22;;
43994;SDS011;51687;52.160;5.298;2023-08-24T05:07:11;7.55;;;6.80;;
43994;SDS011;51687;52.160;5.298;2023-08-24T05:09:38;7.93;;;7.13;;
43994;SDS011;51687;52.160;5.298;2023-08-24T05:12:05;8.50;;;6.65;;
43994;SDS011;51687;52.160;5.298;2023-08-24T05:14:32;8.05;;;7.15;;
43994;SDS011;51687;52.160;5.298;2023-08-24T05:16:59;7.60;;;6.40;;
43994;SDS011;51687;52.160;5.298;2023-08-24T05:19:25;7.18;;;6.53;;
43994;SDS011;51687;52.160;5.298;2023-08-24T05:21:55;8.20;;;7.40;;
43994;SDS011;51687;52.160;5.298;2023-08-24T05:24:22;7.80;;;7.10;;
43994;SDS011;51687;52.160;5.298;2023-08-24T05:26:48;7.80;;;6.90;;
43994;SDS011;51687;52.160;5.298;2023-08-24T05:29:15;8.13;;;7.38;;
43994;SDS011;51687;52.160;5.298;2023-08-24T05:31:42;7.78;;;6.90;;
43994;SDS011;51687;52.160;5.298;2023-08-24T05:34:08;7.72;;;6.97;;
43994;SDS011;51687;52.160;5.298;2023-08-24T05:36:35;7.28;;;6.53;;
43994;SDS011;51687;52.160;5.298;2023-08-24T05:39:02;8.25;;;7.07;;
43994;SDS011;51687;52.160;5.298;2023-08-24T05:41:32;7.10;;;6.50;;
43994;SDS011;51687;52.160;5.298;2023-08-24T05:43:59;10.85;;;7.85;;
43994;SDS011;51687;52.160;5.298;2023-08-24T05:46:26;8.70;;;7.90;;
43994;SDS011;51687;52.160;5.298;2023-08-24T05:48:53;8.27;;;7.47;;
43994;SDS011;51687;52.160;5.298;2023-08-24T05:53:48;8.13;;;7.20;;
43994;SDS011;51687;52.160;5.298;2023-08-24T05:56:15;7.85;;;7.25;;
43994;SDS011;51687;52.160;5.298;2023-08-24T05:58:42;8.73;;;7.78;;
43994;SDS011;51687;52.160;5.298;2023-08-24T06:01:08;8.85;;;7.95;;
43994;SDS011;51687;52.160;5.298;2023-08-24T06:03:35;8.27;;;6.93;;
43994;SDS011;51687;52.160;5.298;2023-08-24T06:06:02;7.97;;;7.20;;
43994;SDS011;51687;52.160;5.298;2023-08-24T06:08:30;9.98;;;7.38;;
43994;SDS011;51687;52.160;5.298;2023-08-24T06:10:57;7.85;;;7.13;;
43994;SDS011;51687;52.160;5.298;2023-08-24T06:13:24;7.88;;;7.13;;
43994;SDS011;51687;52.160;5.298;2023-08-24T06:15:51;15.13;;;7.40;;
43994;SDS011;51687;52.160;5.298;2023-08-24T06:18:18;7.88;;;6.55;;
43994;SDS011;51687;52.160;5.298;2023-08-24T06:20:45;7.63;;;6.97;;
43994;SDS011;51687;52.160;5.298;2023-08-24T06:23:12;8.20;;;7.28;;
43994;SDS011;51687;52.160;5.298;2023-08-24T06:25:43;7.95;;;7.18;;
43994;SDS011;51687;52.160;5.298;2023-08-24T06:28:11;8.77;;;6.55;;
43994;SDS011;51687;52.160;5.298;2023-08-24T06:30:38;13.52;;;7.43;;
43994;SDS011;51687;52.160;5.298;2023-08-24T06:33:06;16.20;;;7.75;;
43994;SDS011;51687;52.160;5.298;2023-08-24T06:35:33;8.77;;;7.07;;
43994;SDS011;51687;52.160;5.298;2023-08-24T06:38:01;7.78;;;6.93;;
43994;SDS011;51687;52.160;5.298;2023-08-24T06:40:29;9.90;;;7.82;;
43994;SDS011;51687;52.160;5.298;2023-08-24T06:42:56;10.93;;;7.57;;
43994;SDS011;51687;52.160;5.298;2023-08-24T06:45:23;8.30;;;7.50;;
43994;SDS011;51687;52.160;5.298;2023-08-24T06:47:50;10.05;;;8.38;;
43994;SDS011;51687;52.160;5.298;2023-08-24T06:50:19;10.82;;;7.53;;
43994;SDS011;51687;52.160;5.298;2023-08-24T06:52:46;9.75;;;8.20;;
43994;SDS011;51687;52.160;5.298;2023-08-24T06:55:13;9.85;;;7.60;;
43994;SDS011;51687;52.160;5.298;2023-08-24T06:57:40;8.73;;;7.82;;
43994;SDS011;51687;52.160;5.298;2023-08-24T07:00:07;9.27;;;8.57;;
43994;SDS011;51687;52.160;5.298;2023-08-24T07:02:35;9.73;;;7.88;;
43994;SDS011;51687;52.160;5.298;2023-08-24T07:05:03;8.93;;;8.13;;
43994;SDS011;51687;52.160;5.298;2023-08-24T07:07:35;9.80;;;8.63;;
43994;SDS011;51687;52.160;5.298;2023-08-24T07:10:02;12.73;;;9.07;;
43994;SDS011;51687;52.160;5.298;2023-08-24T07:12:30;12.27;;;9.27;;
43994;SDS011;51687;52.160;5.298;2023-08-24T07:14:56;10.43;;;9.60;;
43994;SDS011;51687;52.160;5.298;2023-08-24T07:17:23;12.75;;;9.82;;
43994;SDS011;51687;52.160;5.298;2023-08-24T07:19:50;10.68;;;9.68;;
43994;SDS011;51687;52.160;5.298;2023-08-24T07:22:17;11.95;;;10.15;;
43994;SDS011;51687;52.160;5.298;2023-08-24T07:24:45;10.53;;;9.40;;
43994;SDS011;51687;52.160;5.298;2023-08-24T07:27:12;10.93;;;9.85;;
43994;SDS011;51687;52.160;5.298;2023-08-24T07:29:40;10.90;;;9.95;;
43994;SDS011;51687;52.160;5.298;2023-08-24T07:32:07;11.35;;;10.18;;
43994;SDS011;51687;52.160;5.298;2023-08-24T07:34:33;11.57;;;10.15;;
43994;SDS011;51687;52.160;5.298;2023-08-24T07:37:00;13.20;;;9.93;;
43994;SDS011;51687;52.160;5.298;2023-08-24T07:39:27;12.52;;;10.10;;
43994;SDS011;51687;52.160;5.298;2023-08-24T07:41:54;9.75;;;8.60;;
43994;SDS011;51687;52.160;5.298;2023-08-24T07:44:21;11.10;;;9.60;;
43994;SDS011;51687;52.160;5.298;2023-08-24T07:46:48;12.57;;;9.77;;
43994;SDS011;51687;52.160;5.298;2023-08-24T07:49:15;11.02;;;9.55;;
43994;SDS011;51687;52.160;5.298;2023-08-24T07:51:42;12.05;;;10.57;;
43994;SDS011;51687;52.160;5.298;2023-08-24T07:54:10;10.45;;;9.60;;
43994;SDS011;51687;52.160;5.298;2023-08-24T07:56:37;10.50;;;9.43;;
43994;SDS011;51687;52.160;5.298;2023-08-24T07:59:04;12.68;;;8.77;;
43994;SDS011;51687;52.160;5.298;2023-08-24T08:01:31;11.50;;;9.45;;
43994;SDS011;51687;52.160;5.298;2023-08-24T08:03:58;11.68;;;9.48;;
43994;SDS011;51687;52.160;5.298;2023-08-24T08:08:53;8.80;;;7.90;;
43994;SDS011;51687;52.160;5.298;2023-08-24T08:11:20;11.80;;;8.57;;
43994;SDS011;51687;52.160;5.298;2023-08-24T08:13:47;9.40;;;8.52;;
43994;SDS011;51687;52.160;5.298;2023-08-24T08:16:14;10.00;;;8.95;;
43994;SDS011;51687;52.160;5.298;2023-08-24T08:18:41;9.50;;;8.65;;
43994;SDS011;51687;52.160;5.298;2023-08-24T08:21:09;8.90;;;8.13;;
43994;SDS011;51687;52.160;5.298;2023-08-24T08:23:48;9.43;;;8.52;;
43994;SDS011;51687;52.160;5.298;2023-08-24T08:26:15;9.98;;;8.35;;
43994;SDS011;51687;52.160;5.298;2023-08-24T08:28:42;9.47;;;8.30;;
43994;SDS011;51687;52.160;5.298;2023-08-24T08:31:10;9.45;;;7.72;;
43994;SDS011;51687;52.160;5.298;2023-08-24T08:33:37;9.35;;;8.45;;
43994;SDS011;51687;52.160;5.298;2023-08-24T08:36:04;8.02;;;7.22;;
43994;SDS011;51687;52.160;5.298;2023-08-24T08:38:31;8.65;;;7.75;;
43994;SDS011;51687;52.160;5.298;2023-08-24T08:41:02;9.52;;;8.45;;
43994;SDS011;51687;52.160;5.298;2023-08-24T08:43:30;8.93;;;8.13;;
43994;SDS011;51687;52.160;5.298;2023-08-24T08:45:57;9.00;;;8.00;;
43994;SDS011;51687;52.160;5.298;2023-08-24T08:48:25;16.25;;;7.97;;
43994;SDS011;51687;52.160;5.298;2023-08-24T08:50:54;8.45;;;7.82;;
43994;SDS011;51687;52.160;5.298;2023-08-24T08:53:23;9.07;;;8.10;;
43994;SDS011;51687;52.160;5.298;2023-08-24T08:55:54;9.68;;;8.73;;
43994;SDS011;51687;52.160;5.298;2023-08-24T08:58:23;10.57;;;8.75;;
43994;SDS011;51687;52.160;5.298;2023-08-24T09:00:54;9.45;;;8.65;;
43994;SDS011;51687;52.160;5.298;2023-08-24T09:03:22;11.02;;;9.32;;
43994;SDS011;51687;52.160;5.298;2023-08-24T09:05:50;8.90;;;8.13;;
43994;SDS011;51687;52.160;5.298;2023-08-24T09:08:17;10.52;;;8.02;;
43994;SDS011;51687;52.160;5.298;2023-08-24T09:10:44;9.43;;;8.43;;
43994;SDS011;51687;52.160;5.298;2023-08-24T09:13:11;11.18;;;8.85;;
43994;SDS011;51687;52.160;5.298;2023-08-24T09:15:38;11.80;;;8.15;;
43994;SDS011;51687;52.160;5.298;2023-08-24T09:18:06;8.25;;;7.40;;
43994;SDS011;51687;52.160;5.298;2023-08-24T09:20:34;14.55;;;8.05;;
43994;SDS011;51687;52.160;5.298;2023-08-24T09:23:01;8.90;;;7.30;;
43994;SDS011;51687;52.160;5.298;2023-08-24T09:25:28;7.80;;;6.90;;
43994;SDS011;51687;52.160;5.298;2023-08-24T09:30:32;9.63;;;8.80;;
43994;SDS011;51687;52.160;5.298;2023-08-24T09:33:02;9.07;;;8.23;;
43994;SDS011;51687;52.160;5.298;2023-08-24T09:35:39;8.32;;;7.47;;
43994;SDS011;51687;52.160;5.298;2023-08-24T09:38:22;9.23;;;7.78;;
43994;SDS011;51687;52.160;5.298;2023-08-24T09:40:53;8.88;;;8.13;;
43994;SDS011;51687;52.160;5.298;2023-08-24T09:43:22;8.38;;;7.53;;
43994;SDS011;51687;52.160;5.298;2023-08-24T09:48:16;8.75;;;7.85;;
43994;SDS011;51687;52.160;5.298;2023-08-24T09:50:44;9.43;;;6.82;;
43994;SDS011;51687;52.160;5.298;2023-08-24T09:53:16;7.47;;;6.85;;
43994;SDS011;51687;52.160;5.298;2023-08-24T09:55:54;8.15;;;6.18;;
43994;SDS011;51687;52.160;5.298;2023-08-24T09:58:25;7.27;;;5.53;;
43994;SDS011;51687;52.160;5.298;2023-08-24T10:00:53;9.40;;;7.68;;
43994;SDS011;51687;52.160;5.298;2023-08-24T10:05:51;7.72;;;6.65;;
43994;SDS011;51687;52.160;5.298;2023-08-24T10:08:35;11.88;;;7.70;;
43994;SDS011;51687;52.160;5.298;2023-08-24T10:11:03;7.93;;;6.20;;
43994;SDS011;51687;52.160;5.298;2023-08-24T10:16:22;7.50;;;6.00;;
43994;SDS011;51687;52.160;5.298;2023-08-24T10:21:18;10.13;;;6.30;;
43994;SDS011;51687;52.160;5.298;2023-08-24T10:23:45;6.72;;;5.80;;
43994;SDS011;51687;52.160;5.298;2023-08-24T10:26:12;8.82;;;5.10;;
43994;SDS011;51687;52.160;5.298;2023-08-24T10:31:08;6.67;;;5.27;;
43994;SDS011;51687;52.160;5.298;2023-08-24T10:33:35;8.73;;;6.63;;
43994;SDS011;51687;52.160;5.298;2023-08-24T10:36:06;10.03;;;6.80;;
43994;SDS011;51687;52.160;5.298;2023-08-24T10:38:34;7.05;;;5.85;;
43994;SDS011;51687;52.160;5.298;2023-08-24T10:41:06;9.90;;;5.70;;
43994;SDS011;51687;52.160;5.298;2023-08-24T10:43:37;7.53;;;6.00;;
43994;SDS011;51687;52.160;5.298;2023-08-24T10:46:11;7.80;;;6.40;;
43994;SDS011;51687;52.160;5.298;2023-08-24T10:53:51;8.32;;;6.35;;
43994;SDS011;51687;52.160;5.298;2023-08-24T10:56:30;11.70;;;5.88;;
43994;SDS011;51687;52.160;5.298;2023-08-24T10:59:13;6.95;;;6.10;;
43994;SDS011;51687;52.160;5.298;2023-08-24T11:01:53;10.77;;;7.43;;
43994;SDS011;51687;52.160;5.298;2023-08-24T11:04:21;9.13;;;7.70;;
43994;SDS011;51687;52.160;5.298;2023-08-24T11:06:52;14.55;;;7.95;;
43994;SDS011;51687;52.160;5.298;2023-08-24T11:09:20;10.57;;;8.75;;
43994;SDS011;51687;52.160;5.298;2023-08-24T11:12:03;16.75;;;8.98;;
43994;SDS011;51687;52.160;5.298;2023-08-24T11:14:31;11.02;;;7.72;;
43994;SDS011;51687;52.160;5.298;2023-08-24T11:17:18;14.23;;;9.00;;
43994;SDS011;51687;52.160;5.298;2023-08-24T11:19:49;14.60;;;9.48;;
43994;SDS011;51687;52.160;5.298;2023-08-24T11:22:19;11.10;;;9.75;;
43994;SDS011;51687;52.160;5.298;2023-08-24T11:24:47;13.35;;;10.27;;
43994;SDS011;51687;52.160;5.298;2023-08-24T11:27:14;13.07;;;10.75;;
43994;SDS011;51687;52.160;5.298;2023-08-24T11:32:09;13.20;;;11.35;;
43994;SDS011;51687;52.160;5.298;2023-08-24T11:34:36;13.87;;;10.73;;
43994;SDS011;51687;52.160;5.298;2023-08-24T11:37:03;12.10;;;10.70;;
43994;SDS011;51687;52.160;5.298;2023-08-24T11:39:30;14.73;;;11.07;;
43994;SDS011;51687;52.160;5.298;2023-08-24T11:41:59;11.95;;;10.75;;
43994;SDS011;51687;52.160;5.298;2023-08-24T11:44:27;12.38;;;11.27;;
43994;SDS011;51687;52.160;5.298;2023-08-24T11:47:11;11.20;;;10.10;;
43994;SDS011;51687;52.160;5.298;2023-08-24T11:49:39;12.68;;;10.98;;
43994;SDS011;51687;52.160;5.298;2023-08-24T11:52:06;16.17;;;11.37;;
43994;SDS011;51687;52.160;5.298;2023-08-24T11:54:33;13.05;;;10.35;;
43994;SDS011;51687;52.160;5.298;2023-08-24T11:57:00;11.65;;;10.70;;
43994;SDS011;51687;52.160;5.298;2023-08-24T11:59:27;15.65;;;10.90;;
43994;SDS011;51687;52.160;5.298;2023-08-24T12:01:54;12.50;;;10.20;;
43994;SDS011;51687;52.160;5.298;2023-08-24T12:04:21;12.65;;;9.70;;
43994;SDS011;51687;52.160;5.298;2023-08-24T12:06:48;11.98;;;9.95;;
43994;SDS011;51687;52.160;5.298;2023-08-24T12:09:16;13.30;;;11.45;;
43994;SDS011;51687;52.160;5.298;2023-08-24T12:14:16;13.45;;;10.55;;
43994;SDS011;51687;52.160;5.298;2023-08-24T12:16:43;11.30;;;10.20;;
43994;SDS011;51687;52.160;5.298;2023-08-24T12:19:10;13.98;;;12.48;;
43994;SDS011;51687;52.160;5.298;2023-08-24T12:21:37;12.40;;;10.38;;
43994;SDS011;51687;52.160;5.298;2023-08-24T12:24:06;17.08;;;11.27;;
43994;SDS011;51687;52.160;5.298;2023-08-24T12:26:35;11.70;;;9.80;;
43994;SDS011;51687;52.160;5.298;2023-08-24T12:31:32;12.85;;;11.43;;
43994;SDS011;51687;52.160;5.298;2023-08-24T12:34:06;11.43;;;9.30;;
43994;SDS011;51687;52.160;5.298;2023-08-24T12:36:35;15.35;;;10.20;;
43994;SDS011;51687;52.160;5.298;2023-08-24T12:39:04;11.02;;;8.70;;
43994;SDS011;51687;52.160;5.298;2023-08-24T12:41:32;10.85;;;9.90;;
43994;SDS011;51687;52.160;5.298;2023-08-24T12:43:59;11.38;;;10.20;;
43994;SDS011;51687;52.160;5.298;2023-08-24T12:46:31;12.68;;;11.00;;
43994;SDS011;51687;52.160;5.298;2023-08-24T12:51:25;12.10;;;11.00;;
43994;SDS011;51687;52.160;5.298;2023-08-24T12:53:52;13.18;;;9.50;;
43994;SDS011;51687;52.160;5.298;2023-08-24T12:56:19;16.75;;;11.20;;
43994;SDS011;51687;52.160;5.298;2023-08-24T12:58:46;15.30;;;10.82;;
43994;SDS011;51687;52.160;5.298;2023-08-24T13:01:12;12.93;;;10.43;;
43994;SDS011;51687;52.160;5.298;2023-08-24T13:03:39;15.43;;;11.18;;
43994;SDS011;51687;52.160;5.298;2023-08-24T13:06:06;13.43;;;12.15;;
43994;SDS011;51687;52.160;5.298;2023-08-24T13:08:49;18.17;;;12.38;;
43994;SDS011;51687;52.160;5.298;2023-08-24T13:11:17;14.03;;;12.30;;
43994;SDS011;51687;52.160;5.298;2023-08-24T13:13:44;12.27;;;11.20;;
43994;SDS011;51687;52.160;5.298;2023-08-24T13:16:14;13.73;;;12.15;;
43994;SDS011;51687;52.160;5.298;2023-08-24T13:18:42;13.43;;;11.57;;
43994;SDS011;51687;52.160;5.298;2023-08-24T13:23:36;13.00;;;9.57;;
43994;SDS011;51687;52.160;5.298;2023-08-24T13:26:02;14.85;;;10.93;;
43994;SDS011;51687;52.160;5.298;2023-08-24T13:28:29;11.35;;;10.25;;
43994;SDS011;51687;52.160;5.298;2023-08-24T13:30:56;12.70;;;9.82;;
43994;SDS011;51687;52.160;5.298;2023-08-24T13:33:23;13.50;;;12.15;;
43994;SDS011;51687;52.160;5.298;2023-08-24T13:35:50;11.77;;;10.60;;
43994;SDS011;51687;52.160;5.298;2023-08-24T13:38:16;14.75;;;11.23;;
43994;SDS011;51687;52.160;5.298;2023-08-24T13:40:43;13.18;;;11.85;;
43994;SDS011;51687;52.160;5.298;2023-08-24T13:43:13;11.52;;;10.23;;
43994;SDS011;51687;52.160;5.298;2023-08-24T13:45:40;13.63;;;12.32;;
43994;SDS011;51687;52.160;5.298;2023-08-24T13:48:06;13.00;;;11.80;;
43994;SDS011;51687;52.160;5.298;2023-08-24T13:50:34;15.00;;;13.60;;
43994;SDS011;51687;52.160;5.298;2023-08-24T13:53:02;15.07;;;13.55;;
43994;SDS011;51687;52.160;5.298;2023-08-24T13:55:29;16.55;;;14.75;;
43994;SDS011;51687;52.160;5.298;2023-08-24T13:57:56;15.93;;;14.60;;
43994;SDS011;51687;52.160;5.298;2023-08-24T14:00:23;16.35;;;14.85;;
43994;SDS011;51687;52.160;5.298;2023-08-24T14:05:20;14.83;;;13.53;;
43994;SDS011;51687;52.160;5.298;2023-08-24T14:07:46;13.65;;;12.45;;
43994;SDS011;51687;52.160;5.298;2023-08-24T14:10:13;13.30;;;12.18;;
43994;SDS011;51687;52.160;5.298;2023-08-24T14:12:40;14.05;;;12.63;;
43994;SDS011;51687;52.160;5.298;2023-08-24T14:15:07;14.60;;;13.07;;
43994;SDS011;51687;52.160;5.298;2023-08-24T14:17:34;17.45;;;15.68;;
43994;SDS011;51687;52.160;5.298;2023-08-24T14:20:01;16.08;;;14.50;;
43994;SDS011;51687;52.160;5.298;2023-08-24T14:22:30;16.27;;;13.75;;
43994;SDS011;51687;52.160;5.298;2023-08-24T14:24:57;13.48;;;12.32;;
43994;SDS011;51687;52.160;5.298;2023-08-24T14:27:23;16.23;;;14.75;;
43994;SDS011;51687;52.160;5.298;2023-08-24T14:29:50;16.02;;;14.65;;
43994;SDS011;51687;52.160;5.298;2023-08-24T14:32:17;16.45;;;13.52;;
43994;SDS011;51687;52.160;5.298;2023-08-24T14:34:44;14.93;;;13.13;;
43994;SDS011;51687;52.160;5.298;2023-08-24T14:37:11;15.52;;;13.48;;
43994;SDS011;51687;52.160;5.298;2023-08-24T14:39:38;18.00;;;16.30;;
43994;SDS011;51687;52.160;5.298;2023-08-24T14:42:05;19.15;;;17.60;;
43994;SDS011;51687;52.160;5.298;2023-08-24T14:44:33;18.73;;;17.05;;
43994;SDS011;51687;52.160;5.298;2023-08-24T14:49:28;18.08;;;16.20;;
43994;SDS011;51687;52.160;5.298;2023-08-24T14:51:55;22.02;;;15.25;;
43994;SDS011;51687;52.160;5.298;2023-08-24T14:54:25;16.08;;;14.63;;
43994;SDS011;51687;52.160;5.298;2023-08-24T14:56:52;16.40;;;14.82;;
43994;SDS011;51687;52.160;5.298;2023-08-24T14:59:19;15.57;;;14.30;;
43994;SDS011;51687;52.160;5.298;2023-08-24T15:01:46;16.00;;;14.40;;
43994;SDS011;51687;52.160;5.298;2023-08-24T15:04:14;16.90;;;15.45;;
43994;SDS011;51687;52.160;5.298;2023-08-24T15:06:41;14.33;;;12.53;;
43994;SDS011;51687;52.160;5.298;2023-08-24T15:09:08;15.90;;;14.43;;
43994;SDS011;51687;52.160;5.298;2023-08-24T15:11:36;15.20;;;13.85;;
43994;SDS011;51687;52.160;5.298;2023-08-24T15:14:03;16.40;;;14.97;;
43994;SDS011;51687;52.160;5.298;2023-08-24T15:16:30;14.90;;;12.32;;
43994;SDS011;51687;52.160;5.298;2023-08-24T15:18:57;14.90;;;13.60;;
43994;SDS011;51687;52.160;5.298;2023-08-24T15:21:24;15.80;;;14.30;;
43994;SDS011;51687;52.160;5.298;2023-08-24T15:23:52;16.87;;;14.40;;
43994;SDS011;51687;52.160;5.298;2023-08-24T15:26:19;21.70;;;12.83;;
43994;SDS011;51687;52.160;5.298;2023-08-24T15:31:38;13.88;;;12.35;;
43994;SDS011;51687;52.160;5.298;2023-08-24T15:34:05;14.75;;;12.70;;
43994;SDS011;51687;52.160;5.298;2023-08-24T15:36:32;15.13;;;13.43;;
43994;SDS011;51687;52.160;5.298;2023-08-24T15:39:00;14.37;;;12.97;;